首页
METAR-TAF:

METAR-TAF

机场 :

廊曼国际机场

曼谷, 泰国

纬度: 13-54-45N, 经度: 100-36-24E, 海拔: 4米

当前天气观测

该预报发布于30分钟前的05:00 UTC
风速5节,风向东转东南,在北转东北之间变化
温度 31°C
湿度 66%
气压 1014 hPa
能見度: 8000
少量云层高于2500英尺

METAR: VTBD 190500Z 12005KT 030V170 8000 FEW025 31/24 Q1014 NOSIG

时间: 12:30 (05:30 UTC)

预报

该预报发布于6小时和30分钟前的23:00 UTC
预报有效从19日的 00点(UTC)到 20日的 06点(UTC)
风速5节,风向东转东南
能見度: 3000
少量云层高于2000英尺
轻雾
成为
从 19日的 03点(UTC)到 19日的 05点(UTC)
能見度: 8000
成为
从 19日的 10点(UTC)到 19日的 12点(UTC)
风速5节,风向
成为
从 19日的 22点(UTC)到 19日的 24点(UTC)
风速5节,风向
能見度: 4000
轻雾
成为
从 20日的 03点(UTC)到 20日的 05点(UTC)
能見度: 9000

TAF: VTBD 182300Z 1900/2006 11005KT 3000 BR FEW020 BECMG 1903/1905 8000 NSW BECMG 1910/1912 18005KT BECMG 1922/1924 10005KT 4000 BR BECMG 2003/2005 9000 NSW

超过4000个机场的气象观测和天气预报(METAR&TAF报告)。

可查询的气象台以黄色和红色小点在地图上表示。

将鼠标移到小点上方,可查看气象台名称。

然后点击查看天气观测和预报。

如需切换地图:点击带黑十字的绿色按钮放大地图;点击带横线的绿色按钮缩小地图;或者点击绿色箭头查看邻近地区的地图。


METAR-TAF: